Terminal Aerodrome Forecast
Issued by NWS

Home | Current Version | Previous Version | Text Only | Print | Product List | Glossary On
Versions: 1 2 3 4 5 6 7 8 9 10 11 12 13 14 15 16 17 18 19 20 21
000
FTUS44 KHGX 161120
TAFSGR
TAF
KSGR 161120Z 1612/1712 11006KT P6SM FEW250
     FM161500 12012KT P6SM SCT250
     FM162100 14013KT P6SM FEW030
     FM170200 14006KT P6SM SCT025
     FM171100 12006KT P6SM BKN025=

USA.gov is the U.S. government's official web portal to all federal, state and local government web resources and services.